Time;durP1;ratioP1;P1;durP2;ratioP2;P2;SDS_P1;SDS_P2;PMS_P1;PMS_P2;Temp;Humidity;BMP_temperature;BMP_pressure;BME280_temperature;BME280_humidity;BME280_pressure;Samples;Min_cycle;Max_cycle;Signal;HPM_P1;HPM_P2
2023/10/10 00:00:27;;;;;;;23.10;15.00;;;;;;;4.69;86.88;100887.38;107903;276;104481;-54
2023/10/10 00:03:27;;;;;;;23.60;15.70;;;;;;;4.71;86.80;100891.48;107925;276;113177;-59
2023/10/10 00:06:08;;;;;;;21.50;16.00;;;;;;;4.68;86.75;100883.02;107897;275;96062;-54
2023/10/10 00:08:50;;;;;;;25.00;16.60;;;;;;;4.67;86.74;100884.40;107951;275;96282;-55
2023/10/10 00:11:28;;;;;;;25.00;16.20;;;;;;;4.62;86.76;100884.09;107867;275;121055;-59
2023/10/10 00:14:17;;;;;;;22.10;15.60;;;;;;;4.60;86.59;100887.70;107925;275;106105;-59
2023/10/10 00:17:08;;;;;;;23.10;16.20;;;;;;;4.53;86.57;100884.29;107950;276;114958;-55
2023/10/10 00:19:53;;;;;;;24.20;16.40;;;;;;;4.44;86.60;100887.40;107954;275;96420;-55
2023/10/10 00:22:35;;;;;;;24.20;16.70;;;;;;;4.35;86.57;100894.63;108023;275;98404;-54
2023/10/10 00:25:23;;;;;;;22.00;16.80;;;;;;;4.30;86.63;100899.41;107974;276;120213;-54
2023/10/10 00:28:16;;;;;;;25.80;18.00;;;;;;;4.23;86.48;100895.20;108038;275;106428;-55
2023/10/10 00:31:03;;;;;;;22.40;16.90;;;;;;;4.12;86.46;100897.40;107951;275;113169;-57
2023/10/10 00:33:47;;;;;;;24.40;17.40;;;;;;;4.03;86.51;100902.12;107965;276;95154;-57
2023/10/10 00:36:31;;;;;;;23.70;17.60;;;;;;;3.96;86.62;100903.33;107990;276;96531;-58
2023/10/10 00:39:22;;;;;;;23.90;18.10;;;;;;;3.92;86.56;100905.64;107967;275;119619;-59
2023/10/10 00:42:17;;;;;;;23.20;16.70;;;;;;;3.85;86.58;100903.03;107955;275;106309;-55
2023/10/10 00:44:53;;;;;;;23.70;17.20;;;;;;;3.76;86.69;100898.48;107936;276;114174;-56
2023/10/10 00:47:31;;;;;;;24.50;16.80;;;;;;;3.72;86.74;100900.66;107943;275;94974;-56
2023/10/10 00:50:16;;;;;;;23.50;17.20;;;;;;;3.67;86.79;100899.32;107916;276;98414;-57
2023/10/10 00:52:55;;;;;;;22.90;15.90;;;;;;;3.62;86.76;100897.01;107977;275;120925;-55
2023/10/10 00:55:39;;;;;;;26.60;16.70;;;;;;;3.59;86.69;100893.95;107921;275;105498;-58
2023/10/10 00:58:15;;;;;;;24.10;16.90;;;;;;;3.54;86.76;100897.87;107899;275;114451;-59
2023/10/10 01:00:54;;;;;;;23.80;16.70;;;;;;;3.50;86.78;100894.34;107974;275;95992;-59
2023/10/10 01:03:42;;;;;;;25.10;15.80;;;;;;;3.48;86.79;100892.05;107911;275;96480;-60
2023/10/10 01:06:24;;;;;;;24.20;16.30;;;;;;;3.46;86.86;100890.26;107918;275;120718;-55
2023/10/10 01:09:20;;;;;;;23.80;17.30;;;;;;;3.44;86.89;100889.20;108004;275;105607;-55
2023/10/10 01:11:58;;;;;;;24.70;16.80;;;;;;;3.41;86.79;100887.66;107987;275;114982;-57
2023/10/10 01:14:39;;;;;;;24.60;17.00;;;;;;;3.38;86.87;100883.48;108050;275;94587;-57
2023/10/10 01:17:16;;;;;;;26.50;17.90;;;;;;;3.37;86.87;100883.41;107979;276;97367;-55
2023/10/10 01:19:58;;;;;;;25.20;17.40;;;;;;;3.36;86.94;100881.00;107990;275;121070;-55
2023/10/10 01:22:40;;;;;;;25.90;18.10;;;;;;;3.33;86.86;100886.19;107753;276;105544;-53
2023/10/10 01:25:45;;;;;;;26.90;17.70;;;;;;;3.31;86.86;100881.80;107948;275;113961;-53
2023/10/10 01:28:27;;;;;;;24.10;17.10;;;;;;;3.26;86.90;100885.27;107915;275;92240;-55
2023/10/10 01:31:10;;;;;;;25.90;18.30;;;;;;;3.21;86.93;100883.66;107991;275;97136;-54
2023/10/10 01:33:47;;;;;;;25.60;17.70;;;;;;;3.15;86.86;100879.77;107883;275;120943;-53
2023/10/10 01:36:29;;;;;;;25.10;18.30;;;;;;;3.08;86.86;100882.15;107963;276;105490;-57
2023/10/10 01:39:47;;;;;;;23.90;17.90;;;;;;;3.02;87.00;100877.69;107940;275;115013;-57
2023/10/10 01:42:31;;;;;;;25.50;17.20;;;;;;;2.96;86.87;100878.36;107904;275;95244;-56
2023/10/10 01:45:10;;;;;;;27.50;17.60;;;;;;;2.90;87.01;100878.34;107922;275;97540;-56
2023/10/10 01:47:57;;;;;;;24.60;16.90;;;;;;;2.83;87.02;100878.00;107975;275;120848;-57
2023/10/10 01:50:42;;;;;;;26.80;17.80;;;;;;;2.76;86.99;100879.37;107979;275;105215;-58
2023/10/10 01:53:31;;;;;;;23.40;16.10;;;;;;;2.70;86.99;100878.81;107958;275;113801;-56
2023/10/10 01:56:13;;;;;;;23.70;16.90;;;;;;;2.68;87.13;100880.89;108027;275;94568;-58
2023/10/10 01:58:53;;;;;;;24.30;16.80;;;;;;;2.67;87.05;100887.59;107986;275;97340;-56
2023/10/10 02:01:33;;;;;;;22.10;16.30;;;;;;;2.65;87.04;100887.75;108010;275;120795;-58
2023/10/10 02:04:07;;;;;;;23.80;17.00;;;;;;;2.62;87.08;100888.73;107759;275;106241;-58
2023/10/10 02:06:47;;;;;;;25.90;18.20;;;;;;;2.57;87.05;100896.80;107992;275;113994;-57
2023/10/10 02:09:34;;;;;;;26.20;18.80;;;;;;;2.51;87.25;100891.97;107904;275;95484;-58
2023/10/10 02:12:16;;;;;;;23.80;17.30;;;;;;;2.49;87.26;100895.67;107916;275;98398;-57
2023/10/10 02:14:54;;;;;;;27.20;18.00;;;;;;;2.43;87.20;100897.42;107948;275;120973;-55
2023/10/10 02:17:39;;;;;;;24.20;16.90;;;;;;;2.38;87.21;100897.82;107922;275;105747;-54
2023/10/10 02:20:33;;;;;;;;;;;;;;;2.34;87.28;100891.71;107870;275;114490;-52
2023/10/10 02:23:23;;;;;;;25.10;17.70;;;;;;;2.31;87.23;100897.84;107926;275;95428;-56
2023/10/10 02:26:23;;;;;;;24.90;17.00;;;;;;;2.26;87.28;100895.20;107892;275;97523;-55
2023/10/10 02:29:33;;;;;;;27.80;17.80;;;;;;;2.21;87.22;100901.52;107844;275;121118;-55
2023/10/10 02:32:12;;;;;;;22.40;17.00;;;;;;;2.19;87.04;100904.04;107828;274;106764;-55
2023/10/10 02:35:27;;;;;;;25.10;16.70;;;;;;;2.15;87.23;100907.36;107960;276;113983;-57
2023/10/10 02:38:03;;;;;;;24.60;18.10;;;;;;;2.10;87.18;100910.41;107928;275;92805;-59
2023/10/10 02:40:43;;;;;;;24.30;18.80;;;;;;;2.08;87.19;100916.41;107867;275;98311;-58
2023/10/10 02:43:45;;;;;;;26.10;19.10;;;;;;;2.04;87.29;100913.74;107996;275;120989;-59
2023/10/10 02:46:33;;;;;;;25.00;19.00;;;;;;;1.99;87.19;100916.69;108000;275;105215;-58
2023/10/10 02:49:22;;;;;;;26.40;19.60;;;;;;;1.95;87.27;100912.65;107327;275;115372;-59
2023/10/10 02:52:06;;;;;;;26.30;19.40;;;;;;;1.92;87.30;100904.11;107773;276;95148;-57
2023/10/10 02:54:54;;;;;;;25.90;18.70;;;;;;;1.90;87.37;100908.49;108016;275;97667;-57
2023/10/10 02:57:39;;;;;;;28.90;19.60;;;;;;;1.92;87.40;100905.14;107948;276;119942;-54
2023/10/10 03:00:28;;;;;;;27.30;19.60;;;;;;;1.92;87.41;100904.09;107973;275;105616;-54
2023/10/10 03:03:11;;;;;;;30.20;19.20;;;;;;;1.90;87.49;100905.48;107862;275;114398;-56
2023/10/10 03:05:55;;;;;;;27.20;19.70;;;;;;;1.87;87.50;100915.11;107886;275;95127;-58
2023/10/10 03:08:51;;;;;;;27.40;21.90;;;;;;;1.85;87.63;100911.54;107924;276;97863;-59
2023/10/10 03:11:39;;;;;;;34.70;20.60;;;;;;;1.86;87.68;100910.10;107870;276;119131;-53
2023/10/10 03:14:25;;;;;;;27.20;20.60;;;;;;;1.83;87.77;100909.92;107896;276;104366;-54
2023/10/10 03:17:05;;;;;;;29.50;21.00;;;;;;;1.82;87.68;100908.60;107869;276;112190;-54
2023/10/10 03:19:50;;;;;;;32.10;21.90;;;;;;;1.82;87.64;100908.81;107887;276;93839;-54
2023/10/10 03:22:52;;;;;;;28.40;21.10;;;;;;;1.80;87.73;100908.94;107935;275;97079;-57
2023/10/10 03:25:49;;;;;;;30.40;20.40;;;;;;;1.76;87.73;100918.50;107882;275;120044;-55
2023/10/10 03:28:33;;;;;;;28.60;20.00;;;;;;;1.71;87.64;100918.01;107909;275;104691;-53
2023/10/10 03:31:23;;;;;;;29.90;21.10;;;;;;;1.67;87.68;100920.42;107937;275;113606;-58
2023/10/10 03:34:19;;;;;;;29.10;19.80;;;;;;;1.63;87.72;100922.14;107707;275;96046;-58
2023/10/10 03:37:20;;;;;;;31.00;22.00;;;;;;;1.61;87.86;100917.70;107973;275;97034;-56
2023/10/10 03:40:20;;;;;;;29.90;20.60;;;;;;;1.60;87.76;100918.68;107993;276;120733;-56
2023/10/10 05:24:24;;;;;;;26.20;19.80;;;;;;;2.31;89.82;100992.20;107907;275;105533;-55
2023/10/10 05:27:05;;;;;;;29.60;21.10;;;;;;;2.43;89.92;100988.41;107946;275;113955;-57
2023/10/10 05:29:48;;;;;;;29.70;21.90;;;;;;;2.52;89.94;100991.04;107908;276;96275;-57
2023/10/10 05:32:32;;;;;;;28.60;21.90;;;;;;;2.62;89.92;100992.52;107937;276;97416;-55
2023/10/10 05:35:12;;;;;;;27.60;20.50;;;;;;;2.75;89.98;100991.45;107548;277;121851;-55
2023/10/10 05:38:00;;;;;;;32.00;23.10;;;;;;;2.87;90.13;100989.59;107582;277;104021;-54
2023/10/10 05:40:47;;;;;;;27.40;20.00;;;;;;;2.97;89.99;100992.09;107528;276;115043;-57
2023/10/10 05:43:26;;;;;;;27.90;20.50;;;;;;;3.13;90.06;101000.42;107556;277;92498;-57
2023/10/10 05:46:05;;;;;;;29.80;21.60;;;;;;;3.34;89.95;101000.45;107629;276;97284;-54
2023/10/10 05:48:48;;;;;;;31.10;20.50;;;;;;;3.65;90.18;101006.14;107613;276;119285;-54
2023/10/10 05:51:29;;;;;;;27.10;20.40;;;;;;;3.81;90.15;101008.36;107589;276;105464;-56
2023/10/10 05:54:12;;;;;;;29.20;20.40;;;;;;;3.91;90.01;101008.49;107612;277;112853;-56
2023/10/10 05:56:56;;;;;;;29.20;21.30;;;;;;;4.00;89.85;101011.78;107601;277;94230;-55
2023/10/10 05:59:32;;;;;;;29.20;21.90;;;;;;;4.09;89.80;101013.71;107513;277;98054;-55
2023/10/10 06:02:11;;;;;;;28.30;22.40;;;;;;;4.14;89.67;101012.88;107553;277;120633;-58
2023/10/10 06:04:53;;;;;;;29.90;23.50;;;;;;;4.27;89.63;101012.86;107457;277;105291;-58
2023/10/10 06:07:37;;;;;;;29.10;21.60;;;;;;;4.45;89.85;101012.98;107484;277;113381;-55
2023/10/10 06:10:28;;;;;;;25.50;20.70;;;;;;;4.57;89.85;101016.93;107487;277;96468;-55
2023/10/10 06:13:06;;;;;;;25.10;20.80;;;;;;;4.69;89.84;101016.21;107577;277;98111;-59
2023/10/10 06:15:40;;;;;;;31.70;20.20;;;;;;;4.80;89.77;101013.25;107517;276;120269;-56
2023/10/10 06:18:18;;;;;;;;;;;;;;;4.91;89.73;101017.28;107549;277;105099;-56
2023/10/10 06:21:07;;;;;;;27.90;21.60;;;;;;;5.03;89.82;101020.23;107526;277;114896;-59
2023/10/10 06:23:49;;;;;;;26.30;21.20;;;;;;;5.16;89.84;101023.13;107568;276;96344;-60
2023/10/10 06:26:29;;;;;;;27.00;21.30;;;;;;;5.34;89.90;101025.81;107676;277;97260;-57
2023/10/10 06:29:11;;;;;;;25.90;20.00;;;;;;;5.48;89.74;101022.94;107586;277;120497;-57
2023/10/10 06:31:52;;;;;;;31.10;21.10;;;;;;;5.67;89.86;101027.52;107614;277;105151;-54
2023/10/10 06:34:36;;;;;;;26.90;20.90;;;;;;;5.80;89.57;101030.98;107834;275;114506;-54
2023/10/10 06:37:18;;;;;;;27.50;20.80;;;;;;;5.87;89.38;101034.75;107974;275;95564;-54
2023/10/10 06:40:07;;;;;;;27.40;20.90;;;;;;;5.99;89.34;101037.41;107962;275;97803;-52
2023/10/10 06:42:47;;;;;;;27.80;22.20;;;;;;;6.15;89.16;101042.88;107921;275;119397;-54
2023/10/10 06:45:31;;;;;;;27.30;22.50;;;;;;;6.22;88.96;101043.40;107896;275;105448;-54
2023/10/10 06:48:09;;;;;;;30.40;22.70;;;;;;;6.28;88.65;101047.85;107893;275;113997;-56
2023/10/10 06:50:49;;;;;;;26.70;21.00;;;;;;;6.36;88.63;101053.19;107926;275;95604;-56
2023/10/10 06:53:35;;;;;;;25.70;21.50;;;;;;;6.45;88.47;101057.28;107954;276;97413;-56
2023/10/10 06:56:17;;;;;;;27.90;21.80;;;;;;;6.57;88.47;101055.08;107918;276;119938;-54
2023/10/10 06:58:56;;;;;;;26.60;20.10;;;;;;;6.70;88.27;101053.61;107862;275;104123;-55
2023/10/10 07:01:35;;;;;;;26.50;20.60;;;;;;;6.84;88.12;101059.09;107913;275;114232;-58
2023/10/10 07:04:16;;;;;;;27.80;20.40;;;;;;;6.96;87.86;101064.07;107971;272;94234;-58
2023/10/10 07:07:00;;;;;;;25.80;19.80;;;;;;;7.06;87.77;101063.69;107963;275;96863;-56
2023/10/10 07:09:43;;;;;;;27.80;19.70;;;;;;;7.16;87.56;101062.56;107943;275;120684;-56
2023/10/10 07:12:21;;;;;;;23.80;19.00;;;;;;;7.24;87.53;101063.11;107985;275;103986;-54
2023/10/10 07:15:00;;;;;;;26.00;19.90;;;;;;;7.33;87.59;101064.91;107960;276;114681;-55
2023/10/10 07:17:41;;;;;;;23.20;18.30;;;;;;;7.46;87.51;101064.80;107950;275;96827;-52
2023/10/10 07:23:20;;;;;;;23.40;17.70;;;;;;;7.84;87.38;101058.89;107953;275;120420;-53
2023/10/10 07:26:04;;;;;;;21.00;18.00;;;;;;;8.33;87.52;101062.89;107955;275;105750;-53
2023/10/10 07:28:49;;;;;;;20.30;17.10;;;;;;;9.19;86.87;101069.77;107921;275;113543;-53
2023/10/10 07:31:34;;;;;;;21.60;19.20;;;;;;;9.60;86.08;101064.20;107927;275;93854;-56
2023/10/10 07:34:17;;;;;;;23.40;17.00;;;;;;;9.61;85.61;101065.17;107912;275;97724;-56
2023/10/10 07:37:07;;;;;;;20.70;17.70;;;;;;;9.73;85.84;101063.84;107693;276;121122;-54
2023/10/10 07:40:08;;;;;;;20.90;16.80;;;;;;;9.98;85.56;101059.97;107956;275;105664;-53
2023/10/10 07:42:51;;;;;;;18.20;16.30;;;;;;;10.46;84.90;101058.89;107937;275;114624;-59
2023/10/10 07:45:34;;;;;;;17.80;15.90;;;;;;;11.93;84.24;101056.98;107903;275;97143;-56
2023/10/10 07:51:07;;;;;;;17.60;14.00;;;;;;;13.69;82.60;101058.38;107876;275;120706;-56
2023/10/10 07:53:58;;;;;;;15.10;13.30;;;;;;;15.21;81.51;101058.88;107724;275;105965;-55
2023/10/10 07:56:45;;;;;;;14.50;12.40;;;;;;;16.70;78.37;101058.06;108000;276;114196;-57
2023/10/10 07:59:22;;;;;;;14.00;11.20;;;;;;;16.84;75.88;101056.02;108078;275;92414;-56
2023/10/10 08:02:20;;;;;;;16.10;11.10;;;;;;;16.63;75.51;101051.98;108019;275;97062;-56
2023/10/10 08:05:09;;;;;;;11.70;10.00;;;;;;;16.62;72.39;101053.77;107963;276;120975;-57
2023/10/10 08:07:48;;;;;;;12.20;9.50;;;;;;;15.91;71.40;101054.52;108031;275;104821;-58
2023/10/10 08:10:35;;;;;;;11.80;9.20;;;;;;;15.10;71.22;101056.45;107962;275;114450;-58
2023/10/10 08:13:22;;;;;;;9.60;8.10;;;;;;;15.22;70.88;101058.43;107912;275;95171;-57
2023/10/10 08:16:02;;;;;;;9.30;7.60;;;;;;;14.91;69.66;101058.16;107958;276;97297;-58
2023/10/10 08:18:52;;;;;;;8.60;7.70;;;;;;;14.32;69.67;101055.51;107887;275;121377;-57
2023/10/10 08:21:39;;;;;;;10.60;8.10;;;;;;;13.88;70.03;101051.77;107922;276;104840;-54
2023/10/10 08:24:21;;;;;;;8.70;7.80;;;;;;;13.42;70.06;101056.77;107896;276;113990;-53
2023/10/10 08:27:09;;;;;;;9.00;7.60;;;;;;;13.06;70.45;101055.84;107923;275;94512;-57
2023/10/10 08:29:50;;;;;;;9.20;7.70;;;;;;;12.87;70.79;101053.71;107952;275;95957;-57
2023/10/10 08:32:37;;;;;;;11.40;8.50;;;;;;;12.93;70.95;101051.48;107729;275;120842;-53
2023/10/10 08:35:16;;;;;;;9.40;7.70;;;;;;;13.29;70.69;101047.52;107561;277;104997;-53
2023/10/10 08:37:56;;;;;;;10.30;8.60;;;;;;;13.15;70.70;101046.09;107606;277;113736;-53
2023/10/10 08:40:37;;;;;;;13.10;9.00;;;;;;;13.06;71.25;101042.84;107650;277;92653;-55
2023/10/10 08:43:14;;;;;;;10.90;9.20;;;;;;;12.88;71.45;101036.46;107648;277;96633;-53
2023/10/10 08:45:54;;;;;;;10.90;9.30;;;;;;;12.72;71.52;101037.86;107620;277;121506;-52
2023/10/10 08:48:45;;;;;;;10.80;9.30;;;;;;;12.65;71.56;101037.94;107616;276;106136;-54
2023/10/10 08:51:33;;;;;;;10.60;9.00;;;;;;;12.60;71.17;101040.41;107542;277;115164;-56
2023/10/10 08:54:15;;;;;;;10.50;9.50;;;;;;;12.43;71.13;101039.20;107527;277;94415;-54
2023/10/10 08:57:00;;;;;;;10.00;8.90;;;;;;;12.38;71.69;101037.33;107630;277;98334;-58
2023/10/10 08:59:42;;;;;;;11.10;9.00;;;;;;;12.33;71.75;101038.39;107531;277;119852;-58
2023/10/10 09:02:23;;;;;;;12.20;9.50;;;;;;;12.35;71.87;101037.62;107533;277;106116;-53
2023/10/10 09:05:00;;;;;;;11.30;9.10;;;;;;;12.45;71.93;101035.73;107517;277;114725;-52
2023/10/10 09:07:42;;;;;;;12.80;9.00;;;;;;;12.70;71.40;101037.01;107550;277;93944;-58
2023/10/10 09:10:18;;;;;;;9.90;8.50;;;;;;;12.97;70.82;101039.04;107595;277;97907;-57
2023/10/10 09:12:56;;;;;;;8.80;7.30;;;;;;;13.20;70.80;101037.27;107559;276;120576;-56
2023/10/10 09:15:35;;;;;;;8.20;7.40;;;;;;;13.81;70.99;101030.60;107552;276;105650;-54
2023/10/10 09:18:25;;;;;;;9.10;7.40;;;;;;;14.50;70.23;101027.27;107535;277;115822;-56
2023/10/10 09:21:20;;;;;;;9.50;7.80;;;;;;;15.04;69.44;101030.19;107602;277;94601;-55
2023/10/10 09:24:27;;;;;;;8.10;7.20;;;;;;;15.64;68.89;101027.74;107636;276;98335;-54
2023/10/10 09:27:27;;;;;;;12.60;7.20;;;;;;;16.36;67.45;101027.23;107627;276;119568;-53
2023/10/10 09:30:14;;;;;;;7.40;6.70;;;;;;;16.97;66.02;101021.30;107626;277;105854;-53
2023/10/10 09:32:57;;;;;;;;;;;;;;;17.69;63.95;101021.08;107604;276;115772;-54
2023/10/10 09:35:49;;;;;;;7.80;6.50;;;;;;;18.17;62.36;101023.23;108044;275;94785;-55
2023/10/10 09:38:33;;;;;;;9.40;6.30;;;;;;;18.54;61.47;101027.68;107960;275;97917;-58
2023/10/10 09:41:27;;;;;;;9.00;6.80;;;;;;;18.67;60.89;101032.45;107977;276;120937;-56
2023/10/10 09:44:30;;;;;;;6.90;6.20;;;;;;;18.36;59.75;101034.77;107927;275;106495;-55
2023/10/10 09:47:17;;;;;;;8.10;7.10;;;;;;;17.89;59.30;101032.89;107972;275;115193;-59
2023/10/10 09:50:29;;;;;;;10.00;6.60;;;;;;;17.26;59.01;101039.79;107914;275;95049;-57
2023/10/10 09:53:19;;;;;;;7.50;6.70;;;;;;;16.56;58.52;101043.87;107956;275;97718;-53
2023/10/10 09:56:01;;;;;;;9.60;7.40;;;;;;;16.09;59.16;101036.88;107723;275;121108;-53
2023/10/10 09:58:41;;;;;;;8.30;6.80;;;;;;;15.94;59.24;101033.40;107700;276;106965;-53
2023/10/10 10:01:40;;;;;;;8.50;7.20;;;;;;;15.64;59.75;101034.29;107915;276;114586;-53
2023/10/10 10:04:26;;;;;;;7.70;6.60;;;;;;;15.53;59.19;101032.54;107689;275;95248;-53
2023/10/10 10:07:31;;;;;;;8.30;6.50;;;;;;;15.47;59.47;101028.98;107731;276;96987;-57
2023/10/10 10:10:48;;;;;;;9.00;7.40;;;;;;;15.41;59.71;101024.73;108019;275;119184;-58
2023/10/10 10:13:40;;;;;;;7.30;6.30;;;;;;;15.27;59.53;101022.90;107957;275;105353;-53
2023/10/10 10:16:37;;;;;;;8.70;6.80;;;;;;;15.11;59.76;101020.38;107971;275;113961;-55
2023/10/10 10:19:28;;;;;;;7.80;6.30;;;;;;;14.89;59.44;101014.63;107907;275;95274;-56
2023/10/10 10:22:13;;;;;;;7.50;5.80;;;;;;;14.86;59.93;101007.63;107991;275;98510;-57
2023/10/10 10:25:22;;;;;;;7.20;5.40;;;;;;;15.00;60.19;101002.89;107958;275;120384;-57
2023/10/10 10:28:10;;;;;;;6.90;4.80;;;;;;;15.03;59.10;101003.73;107933;276;104837;-55
2023/10/10 10:30:53;;;;;;;5.90;4.10;;;;;;;14.97;59.14;101008.47;107944;275;115098;-57
2023/10/10 10:33:33;;;;;;;6.40;3.40;;;;;;;14.88;59.23;101010.82;107893;275;95611;-57
2023/10/10 10:36:17;;;;;;;4.30;3.60;;;;;;;14.85;59.33;101006.54;107971;275;97922;-58
2023/10/10 10:41:55;;;;;;;6.30;3.20;;;;;;;14.87;59.03;101002.06;107947;276;104804;-55
2023/10/10 10:44:46;;;;;;;6.60;3.30;;;;;;;14.96;58.92;101006.66;107916;276;114624;-55
2023/10/10 10:47:59;;;;;;;4.60;3.40;;;;;;;14.93;58.38;100999.95;107427;276;503536;-54
2023/10/10 10:50:45;;;;;;;5.80;3.30;;;;;;;14.76;57.45;100998.66;107885;275;98063;-59
2023/10/10 10:53:38;;;;;;;4.70;3.30;;;;;;;14.51;57.51;100997.48;107916;276;119956;-56
2023/10/10 10:59:13;;;;;;;4.10;3.10;;;;;;;13.91;58.14;100991.97;107996;275;113408;-58
2023/10/10 11:01:55;;;;;;;6.00;3.20;;;;;;;13.89;58.43;100990.82;107964;275;93317;-54
2023/10/10 11:07:46;;;;;;;4.50;3.10;;;;;;;14.02;58.95;100985.79;108020;275;120373;-54
2023/10/10 11:10:36;;;;;;;4.50;3.20;;;;;;;14.24;59.02;100986.61;107894;276;104429;-55
2023/10/10 11:13:14;;;;;;;3.80;2.60;;;;;;;14.29;58.45;100984.44;107660;275;115726;-58
2023/10/10 11:16:10;;;;;;;3.70;2.80;;;;;;;14.15;57.84;100979.48;107946;276;94676;-54
2023/10/10 11:18:57;;;;;;;4.20;2.40;;;;;;;13.96;57.95;100982.68;107842;276;96552;-53
2023/10/10 11:21:34;;;;;;;3.30;2.40;;;;;;;13.78;57.63;100979.98;107932;276;120299;-54
2023/10/10 11:24:23;;;;;;;4.00;2.80;;;;;;;13.70;57.59;100976.60;107934;276;105596;-54
2023/10/10 11:27:21;;;;;;;4.30;2.30;;;;;;;13.71;57.79;100978.66;107917;275;114506;-55
2023/10/10 11:30:08;;;;;;;3.70;2.30;;;;;;;13.64;58.35;100980.10;107898;275;93932;-55
2023/10/10 11:33:16;;;;;;;3.50;2.00;;;;;;;13.66;58.06;100978.05;107949;276;97510;-53
2023/10/10 11:36:01;;;;;;;3.50;2.20;;;;;;;13.79;58.28;100976.73;107915;275;121051;-53
2023/10/10 11:38:42;;;;;;;3.50;2.40;;;;;;;13.89;57.54;100975.19;108022;276;105754;-52
2023/10/10 11:41:29;;;;;;;3.80;2.50;;;;;;;13.94;57.29;100970.13;107967;275;115183;-55
2023/10/10 11:44:19;;;;;;;3.80;2.30;;;;;;;13.85;57.28;100963.96;107977;275;94694;-56
2023/10/10 11:47:07;;;;;;;4.60;2.50;;;;;;;13.89;57.30;100965.24;107937;275;98345;-52
2023/10/10 11:49:44;;;;;;;3.20;2.10;;;;;;;13.95;57.43;100963.02;107984;275;121030;-52
2023/10/10 11:52:32;;;;;;;2.80;2.00;;;;;;;13.90;57.41;100961.23;107992;275;106309;-55
2023/10/10 11:55:17;;;;;;;3.60;2.30;;;;;;;13.83;57.58;100964.81;107945;275;113964;-53
2023/10/10 11:57:59;;;;;;;2.90;2.10;;;;;;;13.75;57.70;100959.86;107954;275;94601;-53
2023/10/10 12:00:42;;;;;;;4.20;2.50;;;;;;;13.83;57.84;100959.34;107925;276;98211;-57
2023/10/10 12:03:41;;;;;;;2.80;2.00;;;;;;;13.95;57.29;100955.13;107874;275;119074;-58
2023/10/10 12:06:19;;;;;;;3.60;2.10;;;;;;;14.02;57.03;100952.69;107929;275;105877;-54
2023/10/10 12:08:53;;;;;;;3.50;1.90;;;;;;;14.05;57.11;100950.31;107923;275;114828;-53
2023/10/10 12:11:33;;;;;;;4.30;2.40;;;;;;;14.10;56.59;100954.20;108000;276;94660;-57
2023/10/10 12:14:12;;;;;;;3.30;2.30;;;;;;;14.13;56.47;100948.52;107931;276;96814;-58
2023/10/10 12:16:57;;;;;;;3.10;2.00;;;;;;;14.13;56.25;100948.73;107958;275;120520;-53
2023/10/10 12:19:37;;;;;;;4.20;1.90;;;;;;;14.07;55.88;100947.83;107925;275;105479;-53
2023/10/10 12:22:22;;;;;;;3.70;2.00;;;;;;;14.04;56.00;100946.98;107958;276;113639;-57
2023/10/10 12:25:01;;;;;;;3.70;2.10;;;;;;;14.01;55.79;100944.15;108002;275;94059;-57
2023/10/10 12:27:48;;;;;;;3.30;2.00;;;;;;;13.99;55.87;100939.15;108026;275;96562;-56
2023/10/10 12:30:26;;;;;;;4.00;2.20;;;;;;;14.03;55.88;100942.61;108024;275;120396;-56
2023/10/10 12:33:08;;;;;;;4.50;2.20;;;;;;;14.11;55.83;100941.71;107966;275;105537;-54
2023/10/10 12:35:47;;;;;;;3.70;2.10;;;;;;;14.22;56.11;100942.83;107904;268;114066;-54
2023/10/10 12:38:24;;;;;;;3.90;2.20;;;;;;;14.33;55.76;100945.48;107928;276;93833;-54
2023/10/10 12:41:05;;;;;;;3.30;2.00;;;;;;;14.34;55.74;100948.15;107942;276;97340;-55
2023/10/10 12:43:45;;;;;;;5.30;1.60;;;;;;;14.22;55.49;100949.84;107914;276;121167;-55
2023/10/10 12:46:23;;;;;;;3.80;1.80;;;;;;;14.09;55.76;100949.73;107945;275;104123;-57
2023/10/10 12:49:05;;;;;;;2.90;1.80;;;;;;;13.94;55.91;100953.91;107669;276;113678;-56
2023/10/10 12:51:46;;;;;;;3.00;2.00;;;;;;;13.82;55.93;100955.04;107899;276;94633;-54
2023/10/10 12:54:34;;;;;;;3.60;2.10;;;;;;;13.63;55.86;100951.23;107935;276;96850;-54
2023/10/10 12:57:14;;;;;;;4.10;2.20;;;;;;;13.45;55.91;100949.02;107967;275;120735;-55
2023/10/10 13:00:23;;;;;;;3.60;2.10;;;;;;;13.31;56.30;100943.05;107961;276;106507;-55
2023/10/10 13:02:54;;;;;;;5.80;2.30;;;;;;;13.18;56.60;100948.52;107908;276;113564;-53
2023/10/10 13:05:36;;;;;;;3.80;2.30;;;;;;;13.07;56.62;100943.23;107956;276;94549;-56
2023/10/10 13:08:20;;;;;;;3.80;2.00;;;;;;;13.00;56.91;100945.19;108021;275;96756;-54
2023/10/10 13:11:02;;;;;;;4.20;2.60;;;;;;;12.93;57.23;100940.11;107951;276;121279;-57
2023/10/10 13:13:46;;;;;;;4.30;2.40;;;;;;;12.93;57.39;100938.98;107980;275;105522;-56
2023/10/10 13:16:37;;;;;;;3.90;2.50;;;;;;;12.98;57.34;100935.33;108012;276;113762;-58
2023/10/10 13:19:21;;;;;;;3.80;2.30;;;;;;;13.03;57.22;100930.28;107941;275;94202;-59
2023/10/10 13:22:02;;;;;;;3.40;2.40;;;;;;;13.08;57.01;100925.56;108001;276;98277;-56
2023/10/10 13:24:38;;;;;;;5.10;3.10;;;;;;;13.09;57.02;100923.52;107975;276;120658;-55
2023/10/10 13:27:17;;;;;;;3.50;1.90;;;;;;;13.10;56.65;100915.08;107964;275;106111;-50
2023/10/10 13:30:01;;;;;;;4.40;2.40;;;;;;;13.09;56.61;100912.64;107679;276;114758;-54
2023/10/10 13:32:42;;;;;;;5.90;2.90;;;;;;;13.06;56.65;100905.40;107945;275;92666;-58
2023/10/10 13:35:30;;;;;;;4.40;2.80;;;;;;;13.01;56.54;100899.98;107609;276;96569;-57
2023/10/10 13:38:08;;;;;;;3.40;2.40;;;;;;;12.95;56.61;100901.52;107464;277;119026;-57
2023/10/10 13:40:52;;;;;;;2.70;2.00;;;;;;;12.88;56.76;100895.67;107598;277;104527;-55
2023/10/10 13:43:36;;;;;;;3.70;2.30;;;;;;;12.85;56.73;100894.05;107530;276;114169;-54
2023/10/10 13:46:18;;;;;;;4.00;2.20;;;;;;;12.78;56.36;100893.75;107525;277;94283;-55
2023/10/10 13:48:55;;;;;;;4.40;2.60;;;;;;;12.69;56.74;100898.33;107588;277;97378;-54
2023/10/10 13:51:39;;;;;;;3.50;2.00;;;;;;;12.60;56.72;100892.99;107537;276;123802;-53
2023/10/10 13:54:15;;;;;;;3.00;1.90;;;;;;;12.50;56.78;100889.75;107587;276;104362;-53
2023/10/10 13:56:54;;;;;;;5.00;2.30;;;;;;;12.39;56.91;100891.41;107623;277;114928;-56
2023/10/10 13:59:32;;;;;;;4.00;2.10;;;;;;;12.31;56.94;100891.88;107558;277;94616;-57
2023/10/10 14:02:10;;;;;;;3.00;1.80;;;;;;;12.23;56.88;100891.41;107611;277;95152;-53
2023/10/10 14:04:50;;;;;;;3.00;1.70;;;;;;;12.16;56.90;100887.23;107560;277;120497;-53
2023/10/10 14:07:27;;;;;;;4.80;2.40;;;;;;;12.10;57.12;100880.21;107551;277;104748;-57
2023/10/10 14:10:09;;;;;;;3.60;2.20;;;;;;;12.02;57.21;100874.73;107516;277;112637;-56
2023/10/10 14:12:51;;;;;;;3.60;2.00;;;;;;;11.94;57.38;100875.20;107553;277;93477;-54
2023/10/10 14:15:29;;;;;;;3.00;2.00;;;;;;;11.84;57.50;100878.15;107533;276;98395;-54
2023/10/10 14:18:09;;;;;;;3.10;2.00;;;;;;;11.78;57.24;100877.44;107582;276;120391;-58
2023/10/10 14:20:50;;;;;;;3.90;2.10;;;;;;;11.73;57.44;100879.35;107575;277;104546;-55
2023/10/10 14:23:29;;;;;;;3.50;2.40;;;;;;;11.64;57.68;100879.47;107575;276;113020;-55
2023/10/10 14:26:18;;;;;;;3.90;2.70;;;;;;;11.60;57.76;100882.70;107574;277;94183;-55
2023/10/10 14:29:05;;;;;;;3.40;2.60;;;;;;;11.54;57.88;100888.48;107529;277;97199;-55
2023/10/10 14:31:44;;;;;;;4.40;2.90;;;;;;;11.49;57.97;100887.60;107546;277;121492;-58
2023/10/10 14:34:26;;;;;;;4.00;2.60;;;;;;;11.46;58.15;100886.02;107803;275;105742;-57